sensor_id;sensor_type;location;lat;lon;timestamp;temperature;humidity
13115;DHT22;6623;52.120;8.660;2023-02-03T00:00:30;8.00;91.50
13115;DHT22;6623;52.120;8.660;2023-02-03T00:02:56;8.00;91.50
13115;DHT22;6623;52.120;8.660;2023-02-03T00:05:21;8.10;91.50
13115;DHT22;6623;52.120;8.660;2023-02-03T00:07:47;8.10;91.50
13115;DHT22;6623;52.120;8.660;2023-02-03T00:10:13;8.00;91.50
13115;DHT22;6623;52.120;8.660;2023-02-03T00:12:39;8.10;91.50
13115;DHT22;6623;52.120;8.660;2023-02-03T00:15:05;8.10;91.50
13115;DHT22;6623;52.120;8.660;2023-02-03T00:17:30;8.10;91.50
13115;DHT22;6623;52.120;8.660;2023-02-03T00:19:56;8.10;91.40
13115;DHT22;6623;52.120;8.660;2023-02-03T00:22:21;8.10;91.40
13115;DHT22;6623;52.120;8.660;2023-02-03T00:24:47;8.10;91.40
13115;DHT22;6623;52.120;8.660;2023-02-03T00:27:12;8.10;91.40
13115;DHT22;6623;52.120;8.660;2023-02-03T00:29:41;8.10;91.40
13115;DHT22;6623;52.120;8.660;2023-02-03T00:32:07;8.10;91.30
13115;DHT22;6623;52.120;8.660;2023-02-03T00:34:32;8.10;91.30
13115;DHT22;6623;52.120;8.660;2023-02-03T00:36:58;8.10;91.30
13115;DHT22;6623;52.120;8.660;2023-02-03T00:39:23;8.20;91.30
13115;DHT22;6623;52.120;8.660;2023-02-03T00:41:49;8.10;91.30
13115;DHT22;6623;52.120;8.660;2023-02-03T00:44:14;8.20;91.30
13115;DHT22;6623;52.120;8.660;2023-02-03T00:46:40;8.20;91.30
13115;DHT22;6623;52.120;8.660;2023-02-03T00:49:06;8.20;91.20
13115;DHT22;6623;52.120;8.660;2023-02-03T00:51:32;8.20;91.20
13115;DHT22;6623;52.120;8.660;2023-02-03T00:53:58;8.20;91.20
13115;DHT22;6623;52.120;8.660;2023-02-03T00:56:23;8.20;91.20
13115;DHT22;6623;52.120;8.660;2023-02-03T00:58:49;8.20;91.20
13115;DHT22;6623;52.120;8.660;2023-02-03T01:01:14;8.20;91.20
13115;DHT22;6623;52.120;8.660;2023-02-03T01:03:40;8.20;91.20
13115;DHT22;6623;52.120;8.660;2023-02-03T01:06:14;8.20;91.20
13115;DHT22;6623;52.120;8.660;2023-02-03T01:08:40;8.20;91.20
13115;DHT22;6623;52.120;8.660;2023-02-03T01:11:12;8.20;91.10
13115;DHT22;6623;52.120;8.660;2023-02-03T01:13:38;8.20;91.10
13115;DHT22;6623;52.120;8.660;2023-02-03T01:16:07;8.20;91.10
13115;DHT22;6623;52.120;8.660;2023-02-03T01:18:32;8.60;91.20
13115;DHT22;6623;52.120;8.660;2023-02-03T01:21:07;8.20;91.10
13115;DHT22;6623;52.120;8.660;2023-02-03T01:23:33;8.30;91.10
13115;DHT22;6623;52.120;8.660;2023-02-03T01:26:07;8.20;91.00
13115;DHT22;6623;52.120;8.660;2023-02-03T01:28:37;8.30;91.10
13115;DHT22;6623;52.120;8.660;2023-02-03T01:31:21;8.30;91.00
13115;DHT22;6623;52.120;8.660;2023-02-03T01:33:47;8.30;91.00
13115;DHT22;6623;52.120;8.660;2023-02-03T01:36:15;8.30;91.00
13115;DHT22;6623;52.120;8.660;2023-02-03T01:38:40;8.30;91.00
13115;DHT22;6623;52.120;8.660;2023-02-03T01:41:09;8.30;91.00
13115;DHT22;6623;52.120;8.660;2023-02-03T01:43:37;8.30;90.90
13115;DHT22;6623;52.120;8.660;2023-02-03T01:46:25;8.30;90.90
13115;DHT22;6623;52.120;8.660;2023-02-03T01:48:55;8.30;90.90
13115;DHT22;6623;52.120;8.660;2023-02-03T01:51:23;8.30;90.90
13115;DHT22;6623;52.120;8.660;2023-02-03T01:53:50;8.30;90.80
13115;DHT22;6623;52.120;8.660;2023-02-03T01:56:17;8.40;90.80
13115;DHT22;6623;52.120;8.660;2023-02-03T01:58:44;8.30;90.80
13115;DHT22;6623;52.120;8.660;2023-02-03T02:01:10;8.30;90.80
13115;DHT22;6623;52.120;8.660;2023-02-03T02:03:53;8.40;90.80
13115;DHT22;6623;52.120;8.660;2023-02-03T02:06:19;8.40;90.80
13115;DHT22;6623;52.120;8.660;2023-02-03T02:08:50;8.30;90.70
13115;DHT22;6623;52.120;8.660;2023-02-03T02:11:25;8.40;90.70
13115;DHT22;6623;52.120;8.660;2023-02-03T02:13:53;8.40;90.70
13115;DHT22;6623;52.120;8.660;2023-02-03T02:22:13;8.40;90.70
13115;DHT22;6623;52.120;8.660;2023-02-03T02:27:50;8.40;90.60
13115;DHT22;6623;52.120;8.660;2023-02-03T02:33:12;8.40;90.60
13115;DHT22;6623;52.120;8.660;2023-02-03T02:36:03;8.40;90.50
13115;DHT22;6623;52.120;8.660;2023-02-03T02:39:00;8.40;90.50
13115;DHT22;6623;52.120;8.660;2023-02-03T02:41:49;8.40;90.50
13115;DHT22;6623;52.120;8.660;2023-02-03T02:44:27;8.40;90.80
13115;DHT22;6623;52.120;8.660;2023-02-03T02:47:09;8.40;90.50
13115;DHT22;6623;52.120;8.660;2023-02-03T02:50:04;8.40;90.50
13115;DHT22;6623;52.120;8.660;2023-02-03T02:52:34;8.40;90.50
13115;DHT22;6623;52.120;8.660;2023-02-03T02:55:06;8.40;90.50
13115;DHT22;6623;52.120;8.660;2023-02-03T02:57:33;8.40;90.50
13115;DHT22;6623;52.120;8.660;2023-02-03T03:00:00;8.40;90.40
13115;DHT22;6623;52.120;8.660;2023-02-03T03:02:31;8.40;90.70
13115;DHT22;6623;52.120;8.660;2023-02-03T03:04:58;8.40;90.30
13115;DHT22;6623;52.120;8.660;2023-02-03T03:07:26;8.40;90.30
13115;DHT22;6623;52.120;8.660;2023-02-03T03:09:56;8.50;90.30
13115;DHT22;6623;52.120;8.660;2023-02-03T03:12:31;8.40;90.30
13115;DHT22;6623;52.120;8.660;2023-02-03T03:15:07;8.40;90.30
13115;DHT22;6623;52.120;8.660;2023-02-03T03:17:42;8.50;90.30
13115;DHT22;6623;52.120;8.660;2023-02-03T03:20:15;8.50;90.20
13115;DHT22;6623;52.120;8.660;2023-02-03T03:22:58;8.40;90.20
13115;DHT22;6623;52.120;8.660;2023-02-03T03:25:40;8.40;90.20
13115;DHT22;6623;52.120;8.660;2023-02-03T03:28:12;8.40;90.20
13115;DHT22;6623;52.120;8.660;2023-02-03T03:30:39;8.40;90.20
13115;DHT22;6623;52.120;8.660;2023-02-03T03:33:06;8.40;90.40
13115;DHT22;6623;52.120;8.660;2023-02-03T03:35:54;8.50;90.10
13115;DHT22;6623;52.120;8.660;2023-02-03T03:38:25;8.50;90.10
13115;DHT22;6623;52.120;8.660;2023-02-03T03:41:13;8.50;90.10
13115;DHT22;6623;52.120;8.660;2023-02-03T03:43:43;8.40;90.10
13115;DHT22;6623;52.120;8.660;2023-02-03T03:46:13;8.50;90.10
13115;DHT22;6623;52.120;8.660;2023-02-03T03:48:53;8.40;90.00
13115;DHT22;6623;52.120;8.660;2023-02-03T03:51:26;8.50;90.00
13115;DHT22;6623;52.120;8.660;2023-02-03T03:53:55;8.40;89.90
13115;DHT22;6623;52.120;8.660;2023-02-03T03:56:29;8.50;90.00
13115;DHT22;6623;52.120;8.660;2023-02-03T03:58:58;8.50;90.00
13115;DHT22;6623;52.120;8.660;2023-02-03T04:01:25;8.50;90.00
13115;DHT22;6623;52.120;8.660;2023-02-03T04:03:56;8.50;89.90
13115;DHT22;6623;52.120;8.660;2023-02-03T04:06:22;8.50;89.80
13115;DHT22;6623;52.120;8.660;2023-02-03T04:08:48;8.50;89.70
13115;DHT22;6623;52.120;8.660;2023-02-03T04:11:13;8.50;89.70
13115;DHT22;6623;52.120;8.660;2023-02-03T04:13:59;8.50;89.70
13115;DHT22;6623;52.120;8.660;2023-02-03T04:16:24;8.50;89.60
13115;DHT22;6623;52.120;8.660;2023-02-03T04:18:50;8.50;89.60
13115;DHT22;6623;52.120;8.660;2023-02-03T04:21:15;8.50;89.60
13115;DHT22;6623;52.120;8.660;2023-02-03T04:23:41;8.50;89.50
13115;DHT22;6623;52.120;8.660;2023-02-03T04:26:06;8.50;89.50
13115;DHT22;6623;52.120;8.660;2023-02-03T04:28:32;8.50;89.40
13115;DHT22;6623;52.120;8.660;2023-02-03T04:30:59;8.50;89.30
13115;DHT22;6623;52.120;8.660;2023-02-03T04:33:25;8.50;89.20
13115;DHT22;6623;52.120;8.660;2023-02-03T04:35:51;8.50;89.10
13115;DHT22;6623;52.120;8.660;2023-02-03T04:38:16;8.60;89.20
13115;DHT22;6623;52.120;8.660;2023-02-03T04:40:42;8.60;89.10
13115;DHT22;6623;52.120;8.660;2023-02-03T04:43:09;8.50;89.00
13115;DHT22;6623;52.120;8.660;2023-02-03T04:45:35;8.50;88.90
13115;DHT22;6623;52.120;8.660;2023-02-03T04:48:01;8.60;88.90
13115;DHT22;6623;52.120;8.660;2023-02-03T04:50:29;8.60;88.80
13115;DHT22;6623;52.120;8.660;2023-02-03T04:52:54;8.60;88.70
13115;DHT22;6623;52.120;8.660;2023-02-03T04:55:20;8.60;88.70
13115;DHT22;6623;52.120;8.660;2023-02-03T04:57:45;8.60;88.70
13115;DHT22;6623;52.120;8.660;2023-02-03T05:00:11;8.60;88.70
13115;DHT22;6623;52.120;8.660;2023-02-03T05:02:37;8.60;88.60
13115;DHT22;6623;52.120;8.660;2023-02-03T05:05:03;8.60;88.50
13115;DHT22;6623;52.120;8.660;2023-02-03T05:07:28;8.60;88.50
13115;DHT22;6623;52.120;8.660;2023-02-03T05:09:54;8.60;88.50
13115;DHT22;6623;52.120;8.660;2023-02-03T05:12:19;8.60;88.40
13115;DHT22;6623;52.120;8.660;2023-02-03T05:14:45;8.70;88.50
13115;DHT22;6623;52.120;8.660;2023-02-03T05:17:10;8.60;88.40
13115;DHT22;6623;52.120;8.660;2023-02-03T05:19:36;8.60;88.40
13115;DHT22;6623;52.120;8.660;2023-02-03T05:22:04;8.60;88.30
13115;DHT22;6623;52.120;8.660;2023-02-03T05:24:30;8.60;88.20
13115;DHT22;6623;52.120;8.660;2023-02-03T05:26:55;8.60;88.30
13115;DHT22;6623;52.120;8.660;2023-02-03T05:29:21;8.60;88.20
13115;DHT22;6623;52.120;8.660;2023-02-03T05:31:46;8.60;88.20
13115;DHT22;6623;52.120;8.660;2023-02-03T05:34:12;8.60;88.10
13115;DHT22;6623;52.120;8.660;2023-02-03T05:36:37;8.60;88.80
13115;DHT22;6623;52.120;8.660;2023-02-03T05:39:03;8.60;88.10
13115;DHT22;6623;52.120;8.660;2023-02-03T05:41:28;8.60;88.20
13115;DHT22;6623;52.120;8.660;2023-02-03T05:44:12;8.60;88.10
13115;DHT22;6623;52.120;8.660;2023-02-03T05:46:38;8.70;88.20
13115;DHT22;6623;52.120;8.660;2023-02-03T05:49:03;8.60;88.10
13115;DHT22;6623;52.120;8.660;2023-02-03T05:51:29;8.60;88.00
13115;DHT22;6623;52.120;8.660;2023-02-03T05:53:54;8.60;88.00
13115;DHT22;6623;52.120;8.660;2023-02-03T05:56:20;8.60;87.90
13115;DHT22;6623;52.120;8.660;2023-02-03T05:58:49;8.60;87.90
13115;DHT22;6623;52.120;8.660;2023-02-03T06:01:20;8.60;88.50
13115;DHT22;6623;52.120;8.660;2023-02-03T06:03:46;8.70;87.90
13115;DHT22;6623;52.120;8.660;2023-02-03T06:06:12;8.60;87.80
13115;DHT22;6623;52.120;8.660;2023-02-03T06:08:37;8.70;87.80
13115;DHT22;6623;52.120;8.660;2023-02-03T06:11:03;8.70;87.80
13115;DHT22;6623;52.120;8.660;2023-02-03T06:13:29;8.60;87.90
13115;DHT22;6623;52.120;8.660;2023-02-03T06:15:54;8.60;87.90
13115;DHT22;6623;52.120;8.660;2023-02-03T06:18:20;8.70;88.10
13115;DHT22;6623;52.120;8.660;2023-02-03T06:20:46;8.60;88.10
13115;DHT22;6623;52.120;8.660;2023-02-03T06:23:11;8.60;88.10
13115;DHT22;6623;52.120;8.660;2023-02-03T06:25:37;8.60;88.30
13115;DHT22;6623;52.120;8.660;2023-02-03T06:28:03;8.60;88.40
13115;DHT22;6623;52.120;8.660;2023-02-03T06:30:28;8.60;88.50
13115;DHT22;6623;52.120;8.660;2023-02-03T06:32:54;8.50;88.60
13115;DHT22;6623;52.120;8.660;2023-02-03T06:35:19;8.50;88.70
13115;DHT22;6623;52.120;8.660;2023-02-03T06:37:45;8.50;88.90
13115;DHT22;6623;52.120;8.660;2023-02-03T06:40:11;8.50;89.10
13115;DHT22;6623;52.120;8.660;2023-02-03T06:42:37;8.50;89.20
13115;DHT22;6623;52.120;8.660;2023-02-03T06:45:03;8.50;89.30
13115;DHT22;6623;52.120;8.660;2023-02-03T06:47:28;8.50;89.40
13115;DHT22;6623;52.120;8.660;2023-02-03T06:49:54;8.50;89.50
13115;DHT22;6623;52.120;8.660;2023-02-03T06:52:19;8.50;89.60
13115;DHT22;6623;52.120;8.660;2023-02-03T06:54:45;8.50;89.70
13115;DHT22;6623;52.120;8.660;2023-02-03T06:57:11;8.50;89.80
13115;DHT22;6623;52.120;8.660;2023-02-03T06:59:36;8.50;89.80
13115;DHT22;6623;52.120;8.660;2023-02-03T07:02:02;8.50;89.80
13115;DHT22;6623;52.120;8.660;2023-02-03T07:04:28;8.50;89.90
13115;DHT22;6623;52.120;8.660;2023-02-03T07:06:58;8.50;89.90
13115;DHT22;6623;52.120;8.660;2023-02-03T07:09:23;8.50;90.00
13115;DHT22;6623;52.120;8.660;2023-02-03T07:11:49;8.50;90.00
13115;DHT22;6623;52.120;8.660;2023-02-03T07:14:14;8.50;90.10
13115;DHT22;6623;52.120;8.660;2023-02-03T07:16:40;9.10;90.30
13115;DHT22;6623;52.120;8.660;2023-02-03T07:19:05;8.50;90.10
13115;DHT22;6623;52.120;8.660;2023-02-03T07:21:31;8.40;90.20
13115;DHT22;6623;52.120;8.660;2023-02-03T07:23:57;8.40;90.30
13115;DHT22;6623;52.120;8.660;2023-02-03T07:26:22;8.40;90.30
13115;DHT22;6623;52.120;8.660;2023-02-03T07:28:49;8.40;90.30
13115;DHT22;6623;52.120;8.660;2023-02-03T07:31:17;8.40;90.40
13115;DHT22;6623;52.120;8.660;2023-02-03T07:33:42;8.40;90.50
13115;DHT22;6623;52.120;8.660;2023-02-03T07:36:09;8.40;90.60
13115;DHT22;6623;52.120;8.660;2023-02-03T07:38:35;8.40;90.60
13115;DHT22;6623;52.120;8.660;2023-02-03T07:41:03;8.30;90.60
13115;DHT22;6623;52.120;8.660;2023-02-03T07:43:28;8.30;90.60
13115;DHT22;6623;52.120;8.660;2023-02-03T07:45:54;8.30;90.70
13115;DHT22;6623;52.120;8.660;2023-02-03T07:48:19;8.30;90.80
13115;DHT22;6623;52.120;8.660;2023-02-03T07:50:49;8.30;90.80
13115;DHT22;6623;52.120;8.660;2023-02-03T07:53:17;8.30;90.90
13115;DHT22;6623;52.120;8.660;2023-02-03T07:55:42;8.30;90.90
13115;DHT22;6623;52.120;8.660;2023-02-03T07:58:08;8.30;91.00
13115;DHT22;6623;52.120;8.660;2023-02-03T08:00:33;8.30;91.00
13115;DHT22;6623;52.120;8.660;2023-02-03T08:02:59;8.30;91.00
13115;DHT22;6623;52.120;8.660;2023-02-03T08:05:25;8.30;91.10
13115;DHT22;6623;52.120;8.660;2023-02-03T08:07:50;8.30;91.10
13115;DHT22;6623;52.120;8.660;2023-02-03T08:10:16;8.30;91.20
13115;DHT22;6623;52.120;8.660;2023-02-03T08:12:42;8.30;91.20
13115;DHT22;6623;52.120;8.660;2023-02-03T08:15:09;8.30;91.20
13115;DHT22;6623;52.120;8.660;2023-02-03T08:17:35;8.30;91.20
13115;DHT22;6623;52.120;8.660;2023-02-03T08:20:01;8.30;91.30
13115;DHT22;6623;52.120;8.660;2023-02-03T08:22:26;8.30;91.30
13115;DHT22;6623;52.120;8.660;2023-02-03T08:24:52;8.30;91.30
13115;DHT22;6623;52.120;8.660;2023-02-03T08:27:22;8.30;91.30
13115;DHT22;6623;52.120;8.660;2023-02-03T08:29:48;8.30;91.30
13115;DHT22;6623;52.120;8.660;2023-02-03T08:32:19;8.30;91.30
13115;DHT22;6623;52.120;8.660;2023-02-03T08:34:46;8.40;91.30
13115;DHT22;6623;52.120;8.660;2023-02-03T08:37:13;8.30;91.30
13115;DHT22;6623;52.120;8.660;2023-02-03T08:39:39;8.40;91.30
13115;DHT22;6623;52.120;8.660;2023-02-03T08:42:06;8.40;91.30
13115;DHT22;6623;52.120;8.660;2023-02-03T08:44:32;8.40;91.30
13115;DHT22;6623;52.120;8.660;2023-02-03T08:46:58;8.40;91.30
13115;DHT22;6623;52.120;8.660;2023-02-03T08:49:25;8.40;91.30
13115;DHT22;6623;52.120;8.660;2023-02-03T08:51:52;8.40;91.30
13115;DHT22;6623;52.120;8.660;2023-02-03T08:54:18;8.40;91.30
13115;DHT22;6623;52.120;8.660;2023-02-03T08:56:44;8.50;91.40
13115;DHT22;6623;52.120;8.660;2023-02-03T08:59:10;8.50;91.30
13115;DHT22;6623;52.120;8.660;2023-02-03T09:01:36;8.50;91.30
13115;DHT22;6623;52.120;8.660;2023-02-03T09:04:01;8.60;91.30
13115;DHT22;6623;52.120;8.660;2023-02-03T09:06:29;8.50;91.30
13115;DHT22;6623;52.120;8.660;2023-02-03T09:08:55;8.60;91.20
13115;DHT22;6623;52.120;8.660;2023-02-03T09:11:22;8.60;91.20
13115;DHT22;6623;52.120;8.660;2023-02-03T09:13:47;8.60;91.10
13115;DHT22;6623;52.120;8.660;2023-02-03T09:16:17;8.60;91.10
13115;DHT22;6623;52.120;8.660;2023-02-03T09:18:43;8.60;91.10
13115;DHT22;6623;52.120;8.660;2023-02-03T09:21:10;8.70;91.10
13115;DHT22;6623;52.120;8.660;2023-02-03T09:23:36;8.70;91.00
13115;DHT22;6623;52.120;8.660;2023-02-03T09:26:03;8.70;91.00
13115;DHT22;6623;52.120;8.660;2023-02-03T09:28:29;8.70;91.30
13115;DHT22;6623;52.120;8.660;2023-02-03T09:31:02;8.60;91.00
13115;DHT22;6623;52.120;8.660;2023-02-03T09:33:27;8.70;91.10
13115;DHT22;6623;52.120;8.660;2023-02-03T09:35:54;8.60;91.10
13115;DHT22;6623;52.120;8.660;2023-02-03T09:38:20;8.60;91.10
13115;DHT22;6623;52.120;8.660;2023-02-03T09:40:50;8.60;91.10
13115;DHT22;6623;52.120;8.660;2023-02-03T09:45:48;8.60;91.20
13115;DHT22;6623;52.120;8.660;2023-02-03T09:48:33;8.50;91.20
13115;DHT22;6623;52.120;8.660;2023-02-03T09:51:00;8.60;91.20
13115;DHT22;6623;52.120;8.660;2023-02-03T09:53:40;8.60;91.20
13115;DHT22;6623;52.120;8.660;2023-02-03T09:56:21;8.60;91.20
13115;DHT22;6623;52.120;8.660;2023-02-03T09:58:47;8.60;91.20
13115;DHT22;6623;52.120;8.660;2023-02-03T10:01:14;8.60;91.30
13115;DHT22;6623;52.120;8.660;2023-02-03T10:06:32;8.60;91.30
13115;DHT22;6623;52.120;8.660;2023-02-03T10:12:17;8.60;91.40
13115;DHT22;6623;52.120;8.660;2023-02-03T10:15:11;8.60;91.50
13115;DHT22;6623;52.120;8.660;2023-02-03T10:17:55;8.60;91.50
13115;DHT22;6623;52.120;8.660;2023-02-03T10:20:26;8.50;91.50
13115;DHT22;6623;52.120;8.660;2023-02-03T10:22:57;8.50;91.60
13115;DHT22;6623;52.120;8.660;2023-02-03T10:25:40;8.50;91.60
13115;DHT22;6623;52.120;8.660;2023-02-03T10:28:30;8.50;91.70
13115;DHT22;6623;52.120;8.660;2023-02-03T10:31:00;8.60;91.70
13115;DHT22;6623;52.120;8.660;2023-02-03T10:33:30;8.60;91.80
13115;DHT22;6623;52.120;8.660;2023-02-03T10:36:19;8.60;91.80
13115;DHT22;6623;52.120;8.660;2023-02-03T10:39:03;8.60;91.90
13115;DHT22;6623;52.120;8.660;2023-02-03T10:41:32;8.60;91.90
13115;DHT22;6623;52.120;8.660;2023-02-03T10:44:00;8.60;92.00
13115;DHT22;6623;52.120;8.660;2023-02-03T10:46:29;8.60;92.00
13115;DHT22;6623;52.120;8.660;2023-02-03T10:48:55;8.60;92.10
13115;DHT22;6623;52.120;8.660;2023-02-03T10:51:27;8.60;92.10
13115;DHT22;6623;52.120;8.660;2023-02-03T10:53:56;9.20;92.30
13115;DHT22;6623;52.120;8.660;2023-02-03T10:56:25;8.60;92.20
13115;DHT22;6623;52.120;8.660;2023-02-03T10:58:54;8.60;92.20
13115;DHT22;6623;52.120;8.660;2023-02-03T11:01:43;8.60;92.10
13115;DHT22;6623;52.120;8.660;2023-02-03T11:04:24;8.50;92.00
13115;DHT22;6623;52.120;8.660;2023-02-03T11:06:56;8.50;92.00
13115;DHT22;6623;52.120;8.660;2023-02-03T11:12:11;8.50;92.00
13115;DHT22;6623;52.120;8.660;2023-02-03T11:14:42;8.50;92.00
13115;DHT22;6623;52.120;8.660;2023-02-03T11:17:20;8.50;91.90
13115;DHT22;6623;52.120;8.660;2023-02-03T11:19:49;8.50;91.90
13115;DHT22;6623;52.120;8.660;2023-02-03T11:24:52;8.50;91.90
13115;DHT22;6623;52.120;8.660;2023-02-03T11:27:19;8.70;91.90
13115;DHT22;6623;52.120;8.660;2023-02-03T11:29:49;12.10;92.80
13115;DHT22;6623;52.120;8.660;2023-02-03T11:35:02;8.50;91.80
13115;DHT22;6623;52.120;8.660;2023-02-03T11:37:32;8.60;91.90
13115;DHT22;6623;52.120;8.660;2023-02-03T11:42:38;8.60;91.70
13115;DHT22;6623;52.120;8.660;2023-02-03T11:50:28;8.70;91.70
13115;DHT22;6623;52.120;8.660;2023-02-03T12:04:05;8.90;91.30
13115;DHT22;6623;52.120;8.660;2023-02-03T12:07:00;8.90;91.20
13115;DHT22;6623;52.120;8.660;2023-02-03T12:09:31;8.90;91.00
13115;DHT22;6623;52.120;8.660;2023-02-03T12:21:10;8.90;90.90
13115;DHT22;6623;52.120;8.660;2023-02-03T12:26:16;9.00;90.70
13115;DHT22;6623;52.120;8.660;2023-02-03T12:31:40;9.00;90.50
13115;DHT22;6623;52.120;8.660;2023-02-03T12:34:18;9.00;90.40
13115;DHT22;6623;52.120;8.660;2023-02-03T12:39:20;9.10;90.60
13115;DHT22;6623;52.120;8.660;2023-02-03T12:41:53;9.10;90.20
13115;DHT22;6623;52.120;8.660;2023-02-03T12:44:23;9.10;90.10
13115;DHT22;6623;52.120;8.660;2023-02-03T12:47:14;9.20;90.00
13115;DHT22;6623;52.120;8.660;2023-02-03T12:49:44;9.20;89.60
13115;DHT22;6623;52.120;8.660;2023-02-03T12:52:29;9.30;89.30
13115;DHT22;6623;52.120;8.660;2023-02-03T12:54:59;9.30;88.60
13115;DHT22;6623;52.120;8.660;2023-02-03T12:57:38;9.30;88.50
13115;DHT22;6623;52.120;8.660;2023-02-03T13:00:19;9.30;87.80
13115;DHT22;6623;52.120;8.660;2023-02-03T13:05:31;9.40;86.60
13115;DHT22;6623;52.120;8.660;2023-02-03T13:08:05;9.40;86.30
13115;DHT22;6623;52.120;8.660;2023-02-03T13:10:45;9.30;85.90
13115;DHT22;6623;52.120;8.660;2023-02-03T13:13:16;9.40;85.60
13115;DHT22;6623;52.120;8.660;2023-02-03T13:15:45;9.40;85.10
13115;DHT22;6623;52.120;8.660;2023-02-03T13:18:28;9.40;84.60
13115;DHT22;6623;52.120;8.660;2023-02-03T13:20:55;9.40;83.90
13115;DHT22;6623;52.120;8.660;2023-02-03T13:23:21;9.40;84.10
13115;DHT22;6623;52.120;8.660;2023-02-03T13:26:19;9.40;83.90
13115;DHT22;6623;52.120;8.660;2023-02-03T13:40:17;9.40;83.10
13115;DHT22;6623;52.120;8.660;2023-02-03T13:42:47;9.40;83.10
13115;DHT22;6623;52.120;8.660;2023-02-03T13:45:39;9.50;83.00
13115;DHT22;6623;52.120;8.660;2023-02-03T13:50:42;9.50;81.70
13115;DHT22;6623;52.120;8.660;2023-02-03T13:53:20;9.40;81.40
13115;DHT22;6623;52.120;8.660;2023-02-03T13:56:01;9.40;81.60
13115;DHT22;6623;52.120;8.660;2023-02-03T13:58:30;9.40;81.50
13115;DHT22;6623;52.120;8.660;2023-02-03T14:00:58;9.40;81.30
13115;DHT22;6623;52.120;8.660;2023-02-03T14:05:51;9.40;81.30
13115;DHT22;6623;52.120;8.660;2023-02-03T14:19:00;9.40;80.00
13115;DHT22;6623;52.120;8.660;2023-02-03T14:21:28;9.40;80.60
13115;DHT22;6623;52.120;8.660;2023-02-03T14:24:07;9.40;79.80
13115;DHT22;6623;52.120;8.660;2023-02-03T14:26:39;9.50;79.70
13115;DHT22;6623;52.120;8.660;2023-02-03T14:29:08;9.40;79.50
13115;DHT22;6623;52.120;8.660;2023-02-03T14:32:01;9.50;78.10
13115;DHT22;6623;52.120;8.660;2023-02-03T14:40:13;9.40;76.40
13115;DHT22;6623;52.120;8.660;2023-02-03T14:59:41;9.30;73.70
13115;DHT22;6623;52.120;8.660;2023-02-03T15:04:35;9.30;73.60
13115;DHT22;6623;52.120;8.660;2023-02-03T15:07:01;9.30;74.10
13115;DHT22;6623;52.120;8.660;2023-02-03T15:09:35;9.30;74.30
13115;DHT22;6623;52.120;8.660;2023-02-03T15:12:18;9.30;74.10
13115;DHT22;6623;52.120;8.660;2023-02-03T15:14:44;9.30;73.30
13115;DHT22;6623;52.120;8.660;2023-02-03T15:17:22;9.30;73.40
13115;DHT22;6623;52.120;8.660;2023-02-03T15:19:49;9.30;73.40
13115;DHT22;6623;52.120;8.660;2023-02-03T15:22:27;9.30;73.70
13115;DHT22;6623;52.120;8.660;2023-02-03T15:24:56;9.20;73.80
13115;DHT22;6623;52.120;8.660;2023-02-03T15:27:30;9.20;73.70
13115;DHT22;6623;52.120;8.660;2023-02-03T15:29:56;9.20;73.20
13115;DHT22;6623;52.120;8.660;2023-02-03T15:32:36;9.20;72.50
13115;DHT22;6623;52.120;8.660;2023-02-03T15:35:08;9.20;72.40
13115;DHT22;6623;52.120;8.660;2023-02-03T15:37:50;9.10;71.50
13115;DHT22;6623;52.120;8.660;2023-02-03T15:40:19;9.10;71.90
13115;DHT22;6623;52.120;8.660;2023-02-03T15:43:01;9.10;72.10
13115;DHT22;6623;52.120;8.660;2023-02-03T15:45:35;9.10;72.10
13115;DHT22;6623;52.120;8.660;2023-02-03T15:51:01;9.00;71.10
13115;DHT22;6623;52.120;8.660;2023-02-03T15:53:33;9.00;71.40
13115;DHT22;6623;52.120;8.660;2023-02-03T15:56:02;8.90;71.10
13115;DHT22;6623;52.120;8.660;2023-02-03T15:58:32;8.90;71.30
13115;DHT22;6623;52.120;8.660;2023-02-03T16:01:03;8.90;71.10
13115;DHT22;6623;52.120;8.660;2023-02-03T16:03:46;8.80;70.80
13115;DHT22;6623;52.120;8.660;2023-02-03T16:06:36;8.80;70.70
13115;DHT22;6623;52.120;8.660;2023-02-03T16:09:06;8.80;70.70
13115;DHT22;6623;52.120;8.660;2023-02-03T16:11:48;8.80;70.60
13115;DHT22;6623;52.120;8.660;2023-02-03T16:14:34;8.80;71.00
13115;DHT22;6623;52.120;8.660;2023-02-03T16:17:00;8.80;71.20
13115;DHT22;6623;52.120;8.660;2023-02-03T16:19:28;8.80;71.50
13115;DHT22;6623;52.120;8.660;2023-02-03T16:21:56;8.80;71.80
13115;DHT22;6623;52.120;8.660;2023-02-03T16:24:34;8.70;71.80
13115;DHT22;6623;52.120;8.660;2023-02-03T16:29:53;8.70;72.00
13115;DHT22;6623;52.120;8.660;2023-02-03T16:32:38;8.70;72.00
13115;DHT22;6623;52.120;8.660;2023-02-03T16:35:22;8.70;72.20
13115;DHT22;6623;52.120;8.660;2023-02-03T16:38:16;8.60;72.30
13115;DHT22;6623;52.120;8.660;2023-02-03T16:41:15;8.60;72.40
13115;DHT22;6623;52.120;8.660;2023-02-03T16:43:59;8.60;72.30
13115;DHT22;6623;52.120;8.660;2023-02-03T16:46:44;8.60;72.40
13115;DHT22;6623;52.120;8.660;2023-02-03T16:49:29;8.60;72.50
13115;DHT22;6623;52.120;8.660;2023-02-03T16:52:13;8.60;72.70
13115;DHT22;6623;52.120;8.660;2023-02-03T16:54:38;8.50;72.40
13115;DHT22;6623;52.120;8.660;2023-02-03T16:57:04;8.50;72.50
13115;DHT22;6623;52.120;8.660;2023-02-03T16:59:29;8.50;72.50
13115;DHT22;6623;52.120;8.660;2023-02-03T17:01:55;8.50;72.40
13115;DHT22;6623;52.120;8.660;2023-02-03T17:04:21;8.50;72.70
13115;DHT22;6623;52.120;8.660;2023-02-03T17:06:46;8.50;72.70
13115;DHT22;6623;52.120;8.660;2023-02-03T17:09:18;8.50;72.50
13115;DHT22;6623;52.120;8.660;2023-02-03T17:11:49;8.50;72.40
13115;DHT22;6623;52.120;8.660;2023-02-03T17:14:15;8.50;72.60
13115;DHT22;6623;52.120;8.660;2023-02-03T17:16:41;8.50;72.60
13115;DHT22;6623;52.120;8.660;2023-02-03T17:19:10;8.50;72.50
13115;DHT22;6623;52.120;8.660;2023-02-03T17:21:36;8.40;72.50
13115;DHT22;6623;52.120;8.660;2023-02-03T17:24:01;8.40;72.20
13115;DHT22;6623;52.120;8.660;2023-02-03T17:26:27;8.40;72.40
13115;DHT22;6623;52.120;8.660;2023-02-03T17:28:53;8.40;72.30
13115;DHT22;6623;52.120;8.660;2023-02-03T17:31:19;8.40;72.30
13115;DHT22;6623;52.120;8.660;2023-02-03T17:33:49;8.40;72.40
13115;DHT22;6623;52.120;8.660;2023-02-03T17:36:17;8.40;72.60
13115;DHT22;6623;52.120;8.660;2023-02-03T17:38:50;8.40;72.60
13115;DHT22;6623;52.120;8.660;2023-02-03T17:41:18;8.40;72.70
13115;DHT22;6623;52.120;8.660;2023-02-03T17:43:45;8.40;72.50
13115;DHT22;6623;52.120;8.660;2023-02-03T17:46:13;8.40;72.70
13115;DHT22;6623;52.120;8.660;2023-02-03T17:48:39;8.40;72.90
13115;DHT22;6623;52.120;8.660;2023-02-03T17:51:15;8.40;72.80
13115;DHT22;6623;52.120;8.660;2023-02-03T17:53:45;8.40;72.80
13115;DHT22;6623;52.120;8.660;2023-02-03T17:56:18;8.40;72.80
13115;DHT22;6623;52.120;8.660;2023-02-03T17:58:44;8.40;72.40
13115;DHT22;6623;52.120;8.660;2023-02-03T18:01:13;8.40;72.40
13115;DHT22;6623;52.120;8.660;2023-02-03T18:03:48;8.40;72.50
13115;DHT22;6623;52.120;8.660;2023-02-03T18:06:16;8.40;72.40
13115;DHT22;6623;52.120;8.660;2023-02-03T18:08:42;8.40;72.50
13115;DHT22;6623;52.120;8.660;2023-02-03T18:11:09;8.40;72.50
13115;DHT22;6623;52.120;8.660;2023-02-03T18:13:37;8.40;72.40
13115;DHT22;6623;52.120;8.660;2023-02-03T18:16:04;8.40;72.40
13115;DHT22;6623;52.120;8.660;2023-02-03T18:18:30;8.40;72.60
13115;DHT22;6623;52.120;8.660;2023-02-03T18:20:56;8.40;72.70
13115;DHT22;6623;52.120;8.660;2023-02-03T18:23:21;8.40;72.60
13115;DHT22;6623;52.120;8.660;2023-02-03T18:25:53;8.40;72.60